Brunswick, GA (31523)

6:51 PM EDT on September 01, 2015 (GMT -0400)
Avalon Place | | Change Station
CLOSE
Current Station
Personal Weather Station
Location: Brunswick, GA
Elevation: 43 ft
Nearby Weather Stations

Elev 43 ft 31.22 °N, 81.54 °W | Updated 1 second ago

Mostly Cloudy
Mostly Cloudy
80.4 °F
Feels Like 86 °F
N
1.6
Wind Variable Wind from East
Gusts 2.2 mph

Today
High -- | Low -- °F
--% Chance of Precip.
Yesterday
High -- | Low -- °F
Precip. -- in
7:01 AM 7:49 PM
Waning Gibbous, 86% visible
Pressure 30.06 in
Visibility 10.0 miles
Clouds Scattered Clouds 5000 ft
Heat Index 86 °F
Dew Point 77 °F
Humidity 88%
Rainfall 0.07 in
Snow Depth Not available.
UV 1 out of 12
Pollen 5.40 out of 12
Air Quality Not available.
Flu Activity Not available.
METAR KBQK 012235Z AUTO 07004KT 10SM SCT050 27/24 A3006 RMK AO1 LTG DSNT E
Pressure 30.06 in
Visibility 10.0 miles
Clouds Scattered Clouds 5000 ft
Heat Index 86 °F
Dew Point 77 °F
Humidity 88%
Rainfall 0.07 in
Snow Depth Not available.
UV 1 out of 12
Pollen 5.40 out of 12
Air Quality Not available.
Flu Activity Not available.
METAR KBQK 012235Z AUTO 07004KT 10SM SCT050 27/24 A3006 RMK AO1 LTG DSNT E

10-Day Weather Forecast

×

Almanac

Astronomy

Sep. 01, 2015 Rise Set
Actual Time
Civil Twilight
Nautical Twilight
Astronomical Twilight
Moon
Length of Visible Light
Length of Day
Tomorrow will be .
, % of the Moon is Illuminated

Today's Extremes

State Highs State Lows

Community

WunderPhotos

Upload Photos

1,851,634 photos uploaded!

WunderBlogs® & News

Nearby

Air Quality

  Air Quality AQ Index Pollutant
Not available.

Snow Depth

Station Depth Elevation

Earthquake Activity

City Distance Mag. Time & Date
Minimum magnitude displayed is 2.5.

Coastal Water Temperatures

Place Temperature

Stations

Nearby Weather Stations

Station Location Temp. Windchill Dew Point Humidity Wind Precip. Elev Updated Type